KEUF

Weedon Field Airport

Eufaula, Alabama, USA
METAR KEUF 110158Z AUTO VRB04KT 6SM BR OVC008 06/06 A3020 RMK AO2 CIG 006V011 SLPNO T00610056 $
Observed Flight Rules
Dec-11 @ 01:58 UTC (47 minutes ago) Instrument Flight Rules
Wind Visibility Clouds Conditions
Variable at 4 knots 6 miles
  • Overcast at 800' AGL
  • Mist
Temperatures Readings
Current 6°C / 43°F
Dewpoint 6°C / 43°F
Humidity 100%
Altimeter 30.2" Hg
Pressure 1023 hPa
Elevation 87
METAR KEUF 110158Z AUTO VRB04KT 6SM BR OVC008 06/06 A3020 RMK AO2 CIG 006V011 SLPNO T00610056 $
Observed Flight Rules
Dec-11 @ 01:58 UTC
(47 minutes ago)
IFR
Wind Visibility
Variable at 4 knots 6 miles
Clouds
  • Overcast at 800' AGL
Conditions
  • Mist
Temperature Dewpoint
6°C / 43°F 6°C / 43°F
Humidity Altimeter Pressure
100% 30.2" Hg 1023 hPa